createdAt,value
2023-03-29T00:00:13.990Z,2.88
2023-03-29T00:05:22.811Z,2.47
2023-03-29T00:10:24.330Z,3.75
2023-03-29T00:15:26.143Z,2.60
2023-03-29T00:20:28.901Z,3.03
2023-03-29T00:25:30.472Z,2.67
2023-03-29T00:30:31.898Z,3.42
2023-03-29T00:35:33.962Z,2.67
2023-03-29T00:40:41.960Z,2.72
2023-03-29T00:45:43.455Z,3.17
2023-03-29T00:50:50.563Z,2.65
2023-03-29T00:55:57.846Z,2.55
2023-03-29T01:01:05.280Z,2.97
2023-03-29T01:06:09.147Z,3.22
2023-03-29T01:11:28.925Z,3.03
2023-03-29T01:16:35.748Z,3.03
2023-03-29T01:21:46.134Z,3.10
2023-03-29T01:27:16.896Z,2.38
2023-03-29T01:32:35.342Z,3.17
2023-03-29T01:37:42.561Z,3.53
2023-03-29T01:42:43.915Z,3.15
2023-03-29T01:47:59.959Z,2.95
2023-03-29T01:53:20.209Z,3.22
2023-03-29T01:58:31.392Z,2.80
2023-03-29T02:03:34.571Z,2.67
2023-03-29T02:08:37.074Z,3.92
2023-03-29T02:13:38.579Z,3.40
2023-03-29T02:18:42.728Z,3.17
2023-03-29T02:23:47.543Z,3.50
2023-03-29T02:28:49.152Z,2.85
2023-03-29T02:33:54.318Z,3.25
2023-03-29T02:38:56.821Z,3.28
2023-03-29T02:44:00.389Z,2.58
2023-03-29T02:49:01.959Z,4.05
2023-03-29T02:54:09.605Z,3.67
2023-03-29T02:59:12.257Z,3.38
2023-03-29T03:04:17.360Z,3.63
2023-03-29T03:09:19.098Z,3.85
2023-03-29T03:14:22.868Z,3.95
2023-03-29T03:19:24.841Z,3.67
2023-03-29T03:24:27.988Z,4.50
2023-03-29T03:29:29.860Z,3.67
2023-03-29T03:34:31.298Z,3.25
2023-03-29T03:39:33.358Z,3.85
2023-03-29T03:44:34.773Z,3.45
2023-03-29T03:49:36.686Z,3.42
2023-03-29T03:54:38.230Z,3.63
2023-03-29T03:59:39.620Z,3.50
2023-03-29T04:04:41.310Z,3.95
2023-03-29T04:09:43.164Z,3.47
2023-03-29T04:14:44.849Z,4.20
2023-03-29T04:19:46.250Z,3.70
2023-03-29T04:24:47.625Z,4.18
2023-03-29T04:29:49.020Z,3.90
2023-03-29T04:34:50.535Z,3.97
2023-03-29T04:39:52.540Z,3.53
2023-03-29T04:44:54.670Z,3.42
2023-03-29T04:49:56.240Z,3.42
2023-03-29T04:54:57.628Z,3.78
2023-03-29T04:59:59.007Z,3.88
2023-03-29T05:05:00.675Z,3.33
2023-03-29T05:10:02.217Z,3.15
2023-03-29T05:15:05.332Z,3.70
2023-03-29T05:20:11.710Z,3.80
2023-03-29T05:25:18.343Z,4.22
2023-03-29T05:30:19.880Z,3.88
2023-03-29T05:35:21.425Z,3.75
2023-03-29T05:40:26.188Z,4.75
2023-03-29T05:45:29.535Z,3.03
2023-03-29T05:50:38.717Z,3.83
2023-03-29T05:55:45.309Z,3.47
2023-03-29T06:00:49.619Z,3.97
2023-03-29T06:06:00.417Z,4.13
2023-03-29T06:11:08.932Z,3.50
2023-03-29T06:16:11.163Z,4.03
2023-03-29T06:21:15.008Z,3.67
2023-03-29T06:26:16.445Z,3.70
2023-03-29T06:31:17.963Z,4.47
2023-03-29T06:36:20.240Z,3.60
2023-03-29T06:41:21.741Z,4.40
2023-03-29T06:46:23.265Z,4.03
2023-03-29T06:51:24.884Z,3.85
2023-03-29T06:56:26.668Z,3.92
2023-03-29T07:01:28.642Z,5.63
2023-03-29T07:06:31.097Z,4.43
2023-03-29T07:11:36.844Z,4.55
2023-03-29T07:16:39.155Z,4.70
2023-03-29T07:21:41.084Z,5.63
2023-03-29T07:26:52.262Z,4.63
2023-03-29T07:32:02.318Z,5.05
2023-03-29T07:37:03.736Z,4.03
2023-03-29T07:42:05.148Z,5.25
2023-03-29T07:47:06.528Z,4.45
2023-03-29T07:52:08.706Z,5.50
2023-03-29T07:57:10.151Z,4.57
2023-03-29T08:02:11.654Z,4.53
2023-03-29T08:07:15.765Z,4.20
2023-03-29T08:12:18.463Z,5.75
2023-03-29T08:17:19.960Z,5.05
2023-03-29T08:22:22.022Z,5.25
2023-03-29T08:27:23.682Z,5.35
2023-03-29T08:32:25.343Z,5.95
2023-03-29T08:37:26.791Z,5.35
2023-03-29T08:42:59.743Z,5.28
2023-03-29T08:48:22.557Z,5.25
2023-03-29T08:53:50.165Z,5.95
2023-03-29T08:58:54.451Z,6.63
2023-03-29T09:04:12.968Z,6.97
2023-03-29T09:09:18.788Z,7.55
2023-03-29T09:14:51.627Z,6.68
2023-03-29T09:20:22.245Z,6.68
2023-03-29T09:25:53.033Z,7.10
2023-03-29T09:31:03.758Z,6.15
2023-03-29T09:36:39.914Z,6.80
2023-03-29T09:41:58.924Z,6.80
2023-03-29T09:47:11.645Z,6.38
2023-03-29T09:52:16.557Z,7.80
2023-03-29T09:57:19.566Z,7.65
2023-03-29T10:02:21.767Z,5.00
2023-03-29T10:07:23.504Z,6.60
2023-03-29T10:12:25.366Z,6.28
2023-03-29T10:17:34.145Z,7.72
2023-03-29T10:22:37.907Z,6.72
2023-03-29T10:27:42.183Z,8.25
2023-03-29T10:32:43.862Z,7.43
2023-03-29T10:37:49.700Z,7.80
2023-03-29T10:42:53.712Z,7.43
2023-03-29T10:47:57.865Z,7.28
2023-03-29T10:52:59.760Z,7.47
2023-03-29T10:58:16.690Z,7.95
2023-03-29T11:03:37.496Z,7.78
2023-03-29T11:08:58.544Z,8.02
2023-03-29T11:14:22.319Z,7.30
2023-03-29T11:19:40.077Z,7.85
2023-03-29T11:25:12.498Z,7.25
2023-03-29T11:30:30.565Z,7.32
2023-03-29T11:35:42.742Z,7.03
2023-03-29T11:40:59.825Z,7.38
2023-03-29T11:46:13.770Z,7.55
2023-03-29T11:51:32.255Z,8.88
2023-03-29T11:56:43.667Z,7.60
2023-03-29T12:01:59.893Z,8.98
2023-03-29T12:07:19.812Z,8.82
2023-03-29T12:12:47.540Z,8.35
2023-03-29T12:18:17.724Z,8.57
2023-03-29T12:23:19.331Z,7.50
2023-03-29T12:28:29.831Z,8.68
2023-03-29T12:33:50.624Z,7.93
2023-03-29T12:38:53.030Z,7.95
2023-03-29T12:44:02.065Z,6.60
2023-03-29T12:49:26.708Z,5.90
2023-03-29T12:54:31.856Z,8.02
2023-03-29T12:59:43.327Z,7.72
2023-03-29T13:04:54.789Z,8.55
2023-03-29T13:10:08.193Z,9.13
2023-03-29T13:15:16.773Z,8.40
2023-03-29T13:20:32.301Z,8.52
2023-03-29T13:25:55.564Z,9.85
2023-03-29T13:31:08.576Z,8.25
2023-03-29T13:36:47.623Z,8.38
2023-03-29T13:41:52.670Z,9.05
2023-03-29T13:47:13.360Z,7.85
2023-03-29T13:52:31.358Z,7.10
2023-03-29T13:57:39.486Z,7.75
2023-03-29T14:02:49.684Z,6.82
2023-03-29T14:07:53.326Z,8.13
2023-03-29T14:12:56.720Z,8.18
2023-03-29T14:18:00.774Z,7.55
2023-03-29T14:23:09.826Z,7.63
2023-03-29T14:28:23.187Z,7.05
2023-03-29T14:33:27.283Z,7.18
2023-03-29T14:38:29.396Z,7.18
2023-03-29T14:43:32.130Z,7.55
2023-03-29T14:48:35.604Z,5.70
2023-03-29T14:53:38.967Z,6.43
2023-03-29T14:58:46.526Z,6.85
2023-03-29T15:03:56.320Z,5.63
2023-03-29T15:09:05.845Z,5.78
2023-03-29T15:14:14.344Z,5.50
2023-03-29T15:19:20.393Z,5.30
2023-03-29T15:24:29.457Z,5.63
2023-03-29T15:29:42.721Z,4.72
2023-03-29T15:34:44.176Z,4.53
2023-03-29T15:39:45.652Z,5.25
2023-03-29T15:44:47.120Z,4.25
2023-03-29T15:49:48.581Z,4.35
2023-03-29T15:54:50.251Z,4.45
2023-03-29T15:59:51.874Z,4.03
2023-03-29T16:04:53.585Z,4.10
2023-03-29T16:09:55.025Z,3.63
2023-03-29T16:14:56.519Z,4.05
2023-03-29T16:19:57.989Z,4.10
2023-03-29T16:24:59.465Z,4.25
2023-03-29T16:30:01.111Z,3.30
2023-03-29T16:35:04.528Z,4.10
2023-03-29T16:40:07.743Z,3.78
2023-03-29T16:45:13.741Z,5.75
2023-03-29T16:50:18.855Z,3.88
2023-03-29T16:55:20.619Z,4.50
2023-03-29T17:00:22.258Z,4.63
2023-03-29T17:05:25.283Z,7.32
2023-03-29T17:10:26.753Z,8.32
2023-03-29T17:15:28.537Z,6.20
2023-03-29T17:20:30.107Z,5.15
2023-03-29T17:25:32.818Z,6.07
2023-03-29T17:30:35.103Z,6.00
2023-03-29T17:35:39.523Z,6.10
2023-03-29T17:40:41.304Z,5.20
2023-03-29T17:45:42.873Z,6.45
2023-03-29T17:50:44.440Z,5.28
2023-03-29T17:55:46.023Z,5.47
2023-03-29T18:00:47.598Z,8.95
2023-03-29T18:05:49.310Z,5.30
2023-03-29T18:10:50.764Z,5.50
2023-03-29T18:15:56.675Z,5.10
2023-03-29T18:20:58.615Z,5.85
2023-03-29T18:26:03.728Z,7.25
2023-03-29T18:31:05.918Z,6.32
2023-03-29T18:36:11.900Z,10.20
2023-03-29T18:41:14.751Z,9.93
2023-03-29T18:46:16.550Z,8.35
2023-03-29T18:51:18.092Z,7.03
2023-03-29T18:56:19.699Z,9.48
2023-03-29T19:01:21.813Z,7.43
2023-03-29T19:06:23.473Z,7.18
2023-03-29T19:11:29.065Z,6.60
2023-03-29T19:16:33.225Z,6.57
2023-03-29T19:21:34.720Z,6.88
2023-03-29T19:26:42.045Z,7.50
2023-03-29T19:31:43.664Z,9.07
2023-03-29T19:36:46.867Z,9.30
2023-03-29T19:41:49.212Z,8.82
2023-03-29T19:46:53.268Z,8.88
2023-03-29T19:51:58.310Z,7.30
2023-03-29T19:57:00.036Z,8.38
2023-03-29T20:02:04.188Z,9.75
2023-03-29T20:07:05.801Z,7.50
2023-03-29T20:12:07.574Z,6.78
2023-03-29T20:17:10.692Z,7.63
2023-03-29T20:22:12.340Z,7.55
2023-03-29T20:27:13.874Z,7.70
2023-03-29T20:32:18.259Z,9.02
2023-03-29T20:37:23.095Z,8.25
2023-03-29T20:42:28.733Z,7.40
2023-03-29T20:47:30.573Z,8.87
2023-03-29T20:52:33.319Z,8.45
2023-03-29T20:57:36.823Z,7.53
2023-03-29T21:02:39.617Z,8.20
2023-03-29T21:07:42.360Z,8.15
2023-03-29T21:12:43.833Z,6.90
2023-03-29T21:17:46.055Z,8.48
2023-03-29T21:22:48.010Z,7.75
2023-03-29T21:27:49.478Z,8.55
2023-03-29T21:32:58.710Z,8.02
2023-03-29T21:38:05.734Z,7.03
2023-03-29T21:43:07.278Z,7.18
2023-03-29T21:48:09.485Z,6.75
2023-03-29T21:53:11.150Z,6.65
2023-03-29T21:58:12.537Z,7.72
2023-03-29T22:03:16.409Z,6.25
2023-03-29T22:08:17.971Z,7.63
2023-03-29T22:13:19.463Z,6.65
2023-03-29T22:18:22.367Z,6.10
2023-03-29T22:23:24.924Z,6.22
2023-03-29T22:28:26.422Z,6.15
2023-03-29T22:33:27.890Z,6.00
2023-03-29T22:38:29.579Z,6.32
2023-03-29T22:43:31.054Z,6.35
2023-03-29T22:48:32.899Z,5.80
2023-03-29T22:53:34.781Z,6.07
2023-03-29T22:58:37.526Z,6.10
2023-03-29T23:03:39.222Z,5.82
2023-03-29T23:08:40.920Z,4.70
2023-03-29T23:13:42.335Z,5.55
2023-03-29T23:18:43.840Z,5.65
2023-03-29T23:23:45.214Z,5.47
2023-03-29T23:28:46.870Z,5.10
2023-03-29T23:33:49.452Z,5.63
2023-03-29T23:38:51.364Z,4.82
2023-03-29T23:43:53.528Z,5.18
2023-03-29T23:48:55.213Z,4.90
2023-03-29T23:53:56.974Z,4.82
2023-03-29T23:58:58.684Z,4.97
